Time;durP1;ratioP1;P1;durP2;ratioP2;P2;SDS_P1;SDS_P2;PMS_P1;PMS_P2;Temp;Humidity;BMP_temperature;BMP_pressure;BME280_temperature;BME280_humidity;BME280_pressure;Samples;Min_cycle;Max_cycle;Signal;HPM_P1;HPM_P2
2023/07/04 00:02:24;;;;;;;;;;;;;;;13.06;66.46;100321.25;7360431;19;19991;-58
2023/07/04 00:04:49;;;;;;;;;;;;;;;13.05;66.33;100324.78;7357594;19;19946;-58
2023/07/04 00:07:15;;;;;;;;;;;;;;;13.05;66.33;100327.41;7358968;19;19931;-59
2023/07/04 00:09:40;;;;;;;;;;;;;;;13.04;65.99;100323.09;7358253;19;19915;-58
2023/07/04 00:12:06;;;;;;;;;;;;;;;13.03;66.23;100321.38;7358756;19;21304;-58
2023/07/04 00:14:31;;;;;;;;;;;;;;;13.01;66.64;100323.19;7357113;19;19919;-57
2023/07/04 00:16:56;;;;;;;;;;;;;;;13.00;66.60;100321.50;7358802;19;19919;-58
2023/07/04 00:19:21;;;;;;;;;;;;;;;12.98;66.70;100320.72;7359087;19;19934;-58
2023/07/04 00:21:47;;;;;;;;;;;;;;;12.96;67.50;100322.50;7353633;19;19915;-59
2023/07/04 00:24:12;;;;;;;;;;;;;;;12.94;67.19;100321.72;7357933;19;19918;-59
2023/07/04 00:26:37;;;;;;;;;;;;;;;12.92;67.29;100319.16;7358790;19;19922;-58
2023/07/04 00:29:02;;;;;;;;;;;;;;;12.90;67.17;100323.59;7357392;19;19961;-58
2023/07/04 00:31:29;;;;;;;;;;;;;;;12.88;67.60;100327.22;7358888;19;19957;-58
2023/07/04 00:33:54;;;;;;;;;;;;;;;12.89;67.28;100318.44;7354257;19;19933;-58
2023/07/04 00:36:20;;;;;;;;;;;;;;;12.87;67.61;100309.75;7359222;19;20462;-59
2023/07/04 00:38:49;;;;;;;;;;;;;;;12.86;67.58;100310.69;7356943;19;19930;-58
2023/07/04 00:41:21;;;;;;;;;;;;;;;12.85;67.25;100306.34;7357866;19;19934;-59
2023/07/04 00:44:00;;;;;;;;;;;;;;;12.84;67.38;100310.75;7357183;19;19933;-58
2023/07/04 00:46:37;;;;;;;;;;;;;;;12.81;67.19;100305.59;7355012;19;20325;-58
2023/07/04 00:49:06;;;;;;;;;;;;;;;12.81;67.72;100307.38;7358279;19;19927;-59
2023/07/04 00:51:31;;;;;;;;;;;;;;;12.78;67.77;100300.50;7356206;19;20452;-58
2023/07/04 00:53:57;;;;;;;;;;;;;;;12.75;67.61;100318.09;7358441;19;19923;-58
2023/07/04 00:56:25;;;;;;;;;;;;;;;12.75;67.23;100305.00;7356140;19;20755;-58
2023/07/04 00:58:51;;;;;;;;;;;;;;;12.72;67.98;100309.47;7357798;19;20745;-59
2023/07/04 01:01:18;;;;;;;;;;;;;;;12.71;67.74;100302.47;7357217;19;19918;-58
2023/07/04 01:03:43;;;;;;;;;;;;;;;12.69;68.03;100300.84;7360473;19;19921;-58
2023/07/04 01:06:14;;;;;;;;;;;;;;;12.67;67.44;100300.91;7356830;19;20251;-58
2023/07/04 01:08:41;;;;;;;;;;;;;;;12.65;67.67;100300.09;7358346;19;20936;-58
2023/07/04 01:11:12;;;;;;;;;;;;;;;12.64;68.22;100298.41;7356816;19;19931;-59
2023/07/04 01:13:39;;;;;;;;;;;;;;;12.62;68.25;100300.25;7356210;19;19919;-58
2023/07/04 01:16:06;;;;;;;;;;;;;;;12.61;68.05;100298.50;7356906;19;20893;-58
2023/07/04 01:18:31;;;;;;;;;;;;;;;12.58;68.02;100293.41;7356769;19;19927;-58
2023/07/04 01:20:57;;;;;;;;;;;;;;;12.58;68.17;100293.41;7358595;19;19956;-58
2023/07/04 01:23:31;;;;;;;;;;;;;;;12.56;68.12;100289.97;7355650;19;19933;-58
2023/07/04 01:26:09;;;;;;;;;;;;;;;12.53;68.59;100295.34;7356941;19;19937;-58
2023/07/04 01:28:35;;;;;;;;;;;;;;;12.51;68.63;100297.13;7356799;19;19951;-58
2023/07/04 01:31:00;;;;;;;;;;;;;;;12.48;68.58;100297.28;7356482;19;19923;-58
2023/07/04 01:33:26;;;;;;;;;;;;;;;12.46;68.61;100293.84;7354759;19;19922;-58
2023/07/04 01:35:52;;;;;;;;;;;;;;;12.45;68.88;100294.75;7356883;19;19919;-58
2023/07/04 01:38:17;;;;;;;;;;;;;;;12.41;68.61;100295.78;7356603;19;20251;-58
2023/07/04 01:40:42;;;;;;;;;;;;;;;12.41;68.56;100290.53;7357048;19;19915;-58
2023/07/04 01:43:07;;;;;;;;;;;;;;;12.39;69.04;100292.38;7356758;19;19921;-58
2023/07/04 01:45:33;;;;;;;;;;;;;;;12.37;69.11;100288.97;7354454;19;20264;-58
2023/07/04 01:47:59;;;;;;;;;;;;;;;12.36;68.74;100287.22;7352768;19;19934;-58
2023/07/04 01:50:24;;;;;;;;;;;;;;;12.35;68.72;100285.53;7356683;19;19915;-57
2023/07/04 01:52:50;;;;;;;;;;;;;;;12.33;69.02;100288.22;7352918;19;20296;-58
2023/07/04 01:55:15;;;;;;;;;;;;;;;12.33;68.91;100287.34;7355436;19;19919;-59
2023/07/04 01:57:41;;;;;;;;;;;;;;;12.31;68.87;100283.94;7351884;19;19911;-58
2023/07/04 02:00:08;;;;;;;;;;;;;;;12.29;68.59;100280.53;7353968;19;20625;-58
2023/07/04 02:02:34;;;;;;;;;;;;;;;12.28;68.95;100284.06;7355336;19;19922;-57
2023/07/04 02:04:59;;;;;;;;;;;;;;;12.26;68.68;100275.38;7354366;19;20769;-58
2023/07/04 02:07:24;;;;;;;;;;;;;;;12.25;69.07;100289.38;7352150;19;20175;-59
2023/07/04 02:09:50;;;;;;;;;;;;;;;12.23;69.23;100275.50;7354633;19;19957;-59
2023/07/04 02:12:16;;;;;;;;;;;;;;;12.22;68.44;100273.81;7354222;19;20001;-58
2023/07/04 02:14:41;;;;;;;;;;;;;;;12.20;68.76;100281.69;7351492;19;20006;-58
2023/07/04 02:17:06;;;;;;;;;;;;;;;12.18;69.16;100273.91;7354652;19;19994;-58
2023/07/04 02:19:32;;;;;;;;;;;;;;;12.18;69.34;100280.91;7355490;19;19918;-58
2023/07/04 02:21:57;;;;;;;;;;;;;;;12.17;69.34;100287.91;7348319;19;19946;-58
2023/07/04 02:24:22;;;;;;;;;;;;;;;12.16;68.99;100280.94;7357238;19;19921;-58
2023/07/04 02:26:48;;;;;;;;;;;;;;;12.15;69.50;100274.00;7359939;19;20648;-58
2023/07/04 02:29:13;;;;;;;;;;;;;;;12.13;69.10;100275.84;7358842;19;19927;-58
2023/07/04 02:31:39;;;;;;;;;;;;;;;12.14;69.00;100281.94;7360458;19;19919;-58
2023/07/04 02:34:04;;;;;;;;;;;;;;;12.11;69.23;100276.78;7362476;19;19938;-58
2023/07/04 02:36:29;;;;;;;;;;;;;;;12.09;69.03;100269.00;7357977;19;20358;-59
2023/07/04 02:38:55;;;;;;;;;;;;;;;12.07;69.07;100257.75;7361913;19;20498;-58
2023/07/04 02:41:20;;;;;;;;;;;;;;;12.05;68.96;100264.78;7358009;19;19941;-58
2023/07/04 02:43:45;;;;;;;;;;;;;;;12.04;69.08;100264.84;7337118;19;19944;-58
2023/07/04 02:46:10;;;;;;;;;;;;;;;12.04;69.10;100260.47;7358503;19;20026;-58
2023/07/04 02:48:36;;;;;;;;;;;;;;;12.02;69.34;100267.53;7362082;19;19926;-59
2023/07/04 02:51:01;;;;;;;;;;;;;;;11.99;69.61;100262.38;7359225;19;19926;-58
2023/07/04 02:53:27;;;;;;;;;;;;;;;11.98;69.63;100268.53;7358599;19;19939;-59
2023/07/04 02:55:53;;;;;;;;;;;;;;;11.97;69.55;100269.44;7359349;19;19922;-58
2023/07/04 02:58:19;;;;;;;;;;;;;;;11.95;69.43;100266.00;7359499;19;19951;-58
2023/07/04 03:00:46;;;;;;;;;;;;;;;11.93;69.11;100253.00;7351733;19;19915;-58
2023/07/04 03:03:11;;;;;;;;;;;;;;;11.94;69.76;100264.31;7358434;19;20578;-59
2023/07/04 03:05:36;;;;;;;;;;;;;;;11.92;69.37;100260.91;7360848;19;19919;-58
2023/07/04 03:08:02;;;;;;;;;;;;;;;11.91;69.31;100264.41;7359718;19;19946;-57
2023/07/04 03:10:28;;;;;;;;;;;;;;;11.89;69.42;100266.22;7360505;19;19930;-58
2023/07/04 03:12:53;;;;;;;;;;;;;;;11.88;70.07;100261.91;7359483;19;19923;-58
2023/07/04 03:15:18;;;;;;;;;;;;;;;11.87;69.86;100257.59;7359818;19;19940;-58
2023/07/04 03:17:43;;;;;;;;;;;;;;;11.85;70.24;100254.16;7358195;19;19930;-58
2023/07/04 03:20:10;;;;;;;;;;;;;;;11.84;69.93;100257.69;7360512;19;19915;-58
2023/07/04 03:22:39;;;;;;;;;;;;;;;11.82;70.16;100249.06;7360464;19;19956;-58
2023/07/04 03:25:05;;;;;;;;;;;;;;;11.80;70.23;100251.66;7359312;19;19911;-58
2023/07/04 03:27:30;;;;;;;;;;;;;;;11.80;70.48;100250.81;7359383;19;20334;-58
2023/07/04 03:29:55;;;;;;;;;;;;;;;11.77;70.15;100250.94;7360454;19;19918;-59
2023/07/04 03:32:20;;;;;;;;;;;;;;;11.76;69.97;100246.59;7358420;19;19918;-58
2023/07/04 03:34:46;;;;;;;;;;;;;;;11.75;69.77;100255.34;7358146;19;20034;-58
2023/07/04 03:37:11;;;;;;;;;;;;;;;11.74;70.24;100251.03;7350838;19;19926;-58
2023/07/04 03:39:37;;;;;;;;;;;;;;;11.73;70.68;100249.34;7358602;19;19918;-58
2023/07/04 03:42:02;;;;;;;;;;;;;;;11.72;70.16;100258.94;7355179;19;19929;-58
2023/07/04 03:44:27;;;;;;;;;;;;;;;11.70;70.44;100256.38;7360402;19;19930;-58
2023/07/04 03:46:53;;;;;;;;;;;;;;;11.68;70.69;100244.25;7358088;19;20496;-58
2023/07/04 03:49:18;;;;;;;;;;;;;;;11.68;70.72;100258.19;7358560;19;19943;-58
2023/07/04 03:51:43;;;;;;;;;;;;;;;11.66;70.62;100248.72;7357802;19;19923;-59
2023/07/04 03:54:09;;;;;;;;;;;;;;;11.65;70.55;100246.97;7360486;19;19923;-58
2023/07/04 03:56:34;;;;;;;;;;;;;;;11.64;70.48;100246.13;7358393;19;19931;-58
2023/07/04 03:58:59;;;;;;;;;;;;;;;11.62;70.89;100241.88;7359148;19;19966;-58
2023/07/04 04:01:24;;;;;;;;;;;;;;;11.61;70.87;100248.00;7358908;19;19922;-57
2023/07/04 04:03:53;;;;;;;;;;;;;;;11.60;70.78;100248.88;7358635;19;19939;-59
2023/07/04 04:06:18;;;;;;;;;;;;;;;11.58;70.73;100246.34;7358586;19;19931;-59
2023/07/04 04:08:43;;;;;;;;;;;;;;;11.58;70.81;100250.72;7356632;19;19935;-58
2023/07/04 04:11:09;;;;;;;;;;;;;;;11.24;70.95;100198.69;7358574;19;19925;-58
2023/07/04 04:13:34;;;;;;;;;;;;;;;11.56;70.97;100247.31;7356803;19;19922;-58
2023/07/04 04:15:59;;;;;;;;;;;;;;;11.54;70.98;100244.72;7360975;19;19930;-58
2023/07/04 04:18:24;;;;;;;;;;;;;;;11.53;71.20;100235.19;7357538;19;19927;-57
2023/07/04 04:20:50;;;;;;;;;;;;;;;11.53;70.73;100248.25;7358352;19;20393;-58
2023/07/04 04:23:15;;;;;;;;;;;;;;;11.51;71.10;100250.06;7358835;19;19962;-58
2023/07/04 04:25:41;;;;;;;;;;;;;;;11.53;70.62;100252.63;7357501;19;19932;-58
2023/07/04 04:28:07;;;;;;;;;;;;;;;11.51;70.81;100244.84;7358550;19;19940;-58
2023/07/04 04:30:32;;;;;;;;;;;;;;;11.51;71.21;100250.06;7358737;19;19939;-58
2023/07/04 04:32:57;;;;;;;;;;;;;;;11.49;71.33;100241.41;7357858;19;19948;-58
2023/07/04 04:35:25;;;;;;;;;;;;;;;11.49;71.23;100241.41;7357696;19;19925;-57
2023/07/04 04:37:50;;;;;;;;;;;;;;;11.48;71.28;100239.72;7358247;19;19986;-58
2023/07/04 04:40:16;;;;;;;;;;;;;;;11.49;71.31;100236.19;7356321;19;20388;-58
2023/07/04 04:42:43;;;;;;;;;;;;;;;11.48;70.85;100234.47;7357407;19;19918;-57
2023/07/04 04:45:09;;;;;;;;;;;;;;;11.49;71.24;100236.19;7356717;19;20017;-57
2023/07/04 04:47:34;;;;;;;;;;;;;;;11.49;70.88;100230.09;7357719;19;19993;-57
2023/07/04 04:50:01;;;;;;;;;;;;;;;11.49;71.16;100230.94;7355782;19;20359;-57
2023/07/04 04:52:29;;;;;;;;;;;;;;;11.49;71.24;100228.34;7357803;19;19922;-58
2023/07/04 04:54:55;;;;;;;;;;;;;;;11.49;71.15;100233.56;7357747;19;20736;-58
2023/07/04 04:57:20;;;;;;;;;;;;;;;11.50;71.22;100232.66;7354859;19;19930;-58
2023/07/04 04:59:47;;;;;;;;;;;;;;;11.49;71.40;100238.78;7356757;19;20010;-58
2023/07/04 05:02:12;;;;;;;;;;;;;;;11.50;71.06;100240.50;7356893;19;20381;-58
2023/07/04 05:04:38;;;;;;;;;;;;;;;11.51;71.41;100241.38;7357513;19;19923;-57
2023/07/04 05:07:03;;;;;;;;;;;;;;;11.50;71.46;100237.88;7355965;19;19922;-57
2023/07/04 05:09:28;;;;;;;;;;;;;;;11.52;71.70;100245.69;7358605;19;20393;-58
2023/07/04 05:11:54;;;;;;;;;;;;;;;11.53;71.45;100240.41;7357118;19;19919;-58
2023/07/04 05:14:19;;;;;;;;;;;;;;;11.53;71.53;100240.41;7357326;19;19969;-58
2023/07/04 05:16:44;;;;;;;;;;;;;;;11.55;71.73;100241.19;7356503;19;19945;-58
2023/07/04 05:19:09;;;;;;;;;;;;;;;11.55;71.69;100241.19;7358016;19;19918;-57
2023/07/04 05:21:35;;;;;;;;;;;;;;;11.58;71.58;100240.25;7356421;19;20020;-57
2023/07/04 05:24:00;;;;;;;;;;;;;;;11.58;71.46;100246.34;7356383;19;19927;-57
2023/07/04 05:26:26;;;;;;;;;;;;;;;11.60;71.78;100249.75;7356123;19;19929;-58
2023/07/04 05:28:52;;;;;;;;;;;;;;;11.62;71.71;100247.09;7356739;19;19922;-58
2023/07/04 05:31:18;;;;;;;;;;;;;;;11.64;71.73;100243.50;7355501;19;20584;-58
2023/07/04 05:33:44;;;;;;;;;;;;;;;11.64;71.62;100246.13;7357482;19;20756;-58
2023/07/04 05:36:18;;;;;;;;;;;;;;;11.67;71.67;100246.03;7355490;19;19929;-58
2023/07/04 05:38:43;;;;;;;;;;;;;;;11.69;71.70;100240.72;7357230;19;19929;-58
2023/07/04 05:41:09;;;;;;;;;;;;;;;11.36;72.06;100177.41;7356092;19;19923;-58
2023/07/04 05:43:35;;;;;;;;;;;;;;;11.74;72.13;100235.34;7358154;19;19926;-58
2023/07/04 05:46:00;;;;;;;;;;;;;;;11.77;71.89;100240.47;7355561;19;20261;-58
2023/07/04 05:48:25;;;;;;;;;;;;;;;11.80;71.73;100245.59;7353967;19;19975;-58
2023/07/04 05:50:51;;;;;;;;;;;;;;;11.84;71.94;100247.22;7355685;19;19926;-57
2023/07/04 05:53:16;;;;;;;;;;;;;;;11.85;72.28;100243.69;7355751;19;20759;-57
2023/07/04 05:55:41;;;;;;;;;;;;;;;11.89;72.05;100245.31;7355823;19;20506;-57
2023/07/04 05:58:06;;;;;;;;;;;;;;;11.92;72.32;100245.22;7348951;19;20355;-58
2023/07/04 06:00:33;;;;;;;;;;;;;;;11.95;72.13;100238.06;7356124;19;20180;-58
2023/07/04 06:02:59;;;;;;;;;;;;;;;11.99;72.45;100244.06;7354016;19;20730;-58
2023/07/04 06:05:24;;;;;;;;;;;;;;;12.01;72.56;100242.22;7353785;19;19930;-57
2023/07/04 06:07:49;;;;;;;;;;;;;;;12.06;72.41;100249.94;7353770;19;19923;-58
2023/07/04 06:10:15;;;;;;;;;;;;;;;12.08;72.54;100235.88;7355999;19;19923;-57
2023/07/04 06:12:40;;;;;;;;;;;;;;;12.13;72.22;100244.44;7352708;19;20354;-57
2023/07/04 06:15:06;;;;;;;;;;;;;;;12.16;72.75;100246.91;7354971;19;19926;-58
2023/07/04 06:17:31;;;;;;;;;;;;;;;12.20;72.47;100247.66;7354552;19;19952;-58
2023/07/04 06:19:56;;;;;;;;;;;;;;;12.26;72.89;100249.19;7355221;19;19923;-58
2023/07/04 06:22:22;;;;;;;;;;;;;;;12.29;72.65;100239.47;7351876;19;19954;-58
2023/07/04 06:24:50;;;;;;;;;;;;;;;12.34;72.90;100236.69;7349852;19;19911;-57
2023/07/04 06:27:15;;;;;;;;;;;;;;;12.38;72.79;100238.28;7353980;19;19944;-58
2023/07/04 06:29:40;;;;;;;;;;;;;;;12.41;72.77;100232.91;7354648;19;20349;-58
2023/07/04 06:32:06;;;;;;;;;;;;;;;12.46;72.95;100241.47;7353748;19;19923;-58
2023/07/04 06:34:31;;;;;;;;;;;;;;;12.51;72.67;100244.75;7355398;19;19931;-58
2023/07/04 06:36:56;;;;;;;;;;;;;;;12.55;72.85;100241.13;7351710;19;19918;-58
2023/07/04 06:39:22;;;;;;;;;;;;;;;12.59;72.78;100245.34;7354580;19;19915;-57
2023/07/04 06:41:49;;;;;;;;;;;;;;;12.63;72.72;100244.31;7353560;19;20041;-57
2023/07/04 06:44:14;;;;;;;;;;;;;;;12.66;73.12;100238.94;7355104;19;19926;-58
2023/07/04 06:46:41;;;;;;;;;;;;;;;12.71;72.75;100241.38;7353676;19;19918;-58
2023/07/04 06:49:06;;;;;;;;;;;;;;;12.77;72.86;100238.50;7354734;19;19915;-58
2023/07/04 06:51:33;;;;;;;;;;;;;;;12.80;73.16;100243.66;7350217;19;19931;-57
2023/07/04 06:53:59;;;;;;;;;;;;;;;12.84;72.83;100239.16;7354813;19;19923;-57
2023/07/04 06:56:25;;;;;;;;;;;;;;;12.89;73.28;100239.81;7353712;19;20607;-58
2023/07/04 06:58:51;;;;;;;;;;;;;;;12.93;73.03;100233.53;7353283;19;19978;-58
2023/07/04 07:01:19;;;;;;;;;;;;;;;12.97;72.96;100237.72;7352960;19;19926;-57
2023/07/04 07:03:44;;;;;;;;;;;;;;;13.01;73.29;100231.44;7349410;19;20604;-59
2023/07/04 07:06:11;;;;;;;;;;;;;;;13.06;73.09;100231.28;7348495;19;19917;-58
2023/07/04 07:08:37;;;;;;;;;;;;;;;13.10;73.66;100220.59;7353584;19;20343;-56
2023/07/04 07:11:04;;;;;;;;;;;;;;;13.15;73.40;100230.91;7357125;19;20772;-58
2023/07/04 07:13:30;;;;;;;;;;;;;;;13.18;73.40;100236.03;7358451;19;19926;-59
2023/07/04 07:16:04;;;;;;;;;;;;;;;13.22;73.31;100233.22;7356945;19;19937;-58
2023/07/04 07:18:32;;;;;;;;;;;;;;;13.28;73.61;100231.28;7359722;19;20470;-59
2023/07/04 07:20:58;;;;;;;;;;;;;;;13.33;73.24;100229.31;7359069;19;20010;-58
2023/07/04 07:23:23;;;;;;;;;;;;;;;13.36;73.39;100231.81;7357591;19;20801;-59
2023/07/04 07:25:55;;;;;;;;;;;;;;;13.40;73.49;100226.38;7358270;19;19919;-58
2023/07/04 07:28:21;;;;;;;;;;;;;;;13.46;73.77;100228.75;7358714;19;20012;-59
2023/07/04 07:30:46;;;;;;;;;;;;;;;13.51;73.48;100223.31;7357788;19;19943;-58
2023/07/04 07:33:12;;;;;;;;;;;;;;;13.57;73.85;100225.66;7358629;19;20317;-59
2023/07/04 07:35:37;;;;;;;;;;;;;;;13.62;73.97;100226.31;7359191;19;19927;-58
2023/07/04 07:38:02;;;;;;;;;;;;;;;13.67;73.45;100224.34;7358394;19;19914;-58
2023/07/04 07:40:27;;;;;;;;;;;;;;;13.71;73.53;100223.31;7357502;19;19915;-58
2023/07/04 07:42:53;;;;;;;;;;;;;;;13.77;73.99;100225.66;7358008;19;19986;-58
2023/07/04 07:45:18;;;;;;;;;;;;;;;13.83;73.52;100227.16;7359303;19;20455;-59
2023/07/04 07:47:43;;;;;;;;;;;;;;;13.87;73.66;100217.38;7359092;19;19915;-59
2023/07/04 07:50:09;;;;;;;;;;;;;;;13.91;73.57;100227.69;7358430;19;19998;-58
2023/07/04 07:52:34;;;;;;;;;;;;;;;13.97;73.90;100237.91;7357834;19;19930;-58
2023/07/04 07:55:00;;;;;;;;;;;;;;;14.02;73.89;100227.22;7359195;19;19919;-58
2023/07/04 07:57:25;;;;;;;;;;;;;;;14.05;73.75;100221.84;7358163;19;22612;-58
2023/07/04 07:59:50;;;;;;;;;;;;;;;14.12;73.66;100230.28;7357826;19;19935;-59
2023/07/04 08:02:15;;;;;;;;;;;;;;;14.17;74.18;100213.41;7355905;19;20336;-58
2023/07/04 08:04:41;;;;;;;;;;;;;;;14.21;73.95;100214.97;7357591;19;20636;-58
2023/07/04 08:07:07;;;;;;;;;;;;;;;14.28;73.81;100221.63;7357835;19;20466;-58
2023/07/04 08:09:32;;;;;;;;;;;;;;;14.35;73.90;100218.75;7357105;19;19923;-58
2023/07/04 08:11:57;;;;;;;;;;;;;;;14.40;73.95;100220.22;7358770;19;19919;-58
2023/07/04 08:14:24;;;;;;;;;;;;;;;14.46;73.96;100219.09;7356246;19;19923;-58
2023/07/04 08:16:50;;;;;;;;;;;;;;;14.50;73.90;100210.19;7357298;19;19919;-58
2023/07/04 08:19:17;;;;;;;;;;;;;;;14.58;73.68;100215.91;7356349;19;20044;-59
2023/07/04 08:21:43;;;;;;;;;;;;;;;14.63;74.01;100211.28;7353890;19;19931;-58
2023/07/04 08:24:12;;;;;;;;;;;;;;;14.69;73.55;100207.53;7357244;19;19955;-59
2023/07/04 08:26:38;;;;;;;;;;;;;;;14.40;73.43;100151.09;7358488;19;19931;-57
2023/07/04 08:29:04;;;;;;;;;;;;;;;14.79;73.96;100206.16;7357082;19;19919;-58
2023/07/04 08:31:29;;;;;;;;;;;;;;;14.87;73.78;100208.44;7357750;19;19939;-58
2023/07/04 08:33:55;;;;;;;;;;;;;;;14.93;74.19;100218.66;7355920;19;19919;-58
2023/07/04 08:36:20;;;;;;;;;;;;;;;14.99;73.71;100213.09;7357214;19;19926;-58
2023/07/04 08:38:46;;;;;;;;;;;;;;;15.06;73.84;100214.50;7357102;19;19943;-58
2023/07/04 08:41:19;;;;;;;;;;;;;;;15.11;73.55;100216.91;7356489;19;19942;-58
2023/07/04 08:43:49;;;;;;;;;;;;;;;15.18;74.19;100208.63;7352106;19;19948;-58
2023/07/04 08:46:15;;;;;;;;;;;;;;;15.22;73.53;100215.44;7356906;19;19922;-58
2023/07/04 08:48:41;;;;;;;;;;;;;;;15.29;73.71;100211.56;7357074;19;19932;-58
2023/07/04 08:51:09;;;;;;;;;;;;;;;15.35;73.92;100199.88;7357079;19;19923;-57
2023/07/04 08:53:35;;;;;;;;;;;;;;;15.43;74.25;100207.41;7356134;19;19915;-58
2023/07/04 08:56:04;;;;;;;;;;;;;;;15.51;74.17;100210.47;7355888;19;20548;-58
2023/07/04 08:58:36;;;;;;;;;;;;;;;15.56;74.08;100204.09;7354680;19;20264;-58
2023/07/04 09:01:07;;;;;;;;;;;;;;;15.65;73.78;100213.31;7358443;19;19929;-58
2023/07/04 09:03:38;;;;;;;;;;;;;;;15.72;74.02;100212.06;7356287;19;19919;-59
2023/07/04 09:06:03;;;;;;;;;;;;;;;15.80;73.83;100201.97;7354759;19;19922;-58
2023/07/04 09:08:41;;;;;;;;;;;;;;;15.88;74.01;100206.00;7356844;19;20027;-58
2023/07/04 09:11:08;;;;;;;;;;;;;;;15.96;73.86;100204.66;7355617;19;20683;-59
2023/07/04 09:13:39;;;;;;;;;;;;;;;16.05;73.82;100205.94;7355990;19;19939;-58
2023/07/04 09:16:06;;;;;;;;;;;;;;;16.11;73.91;100205.63;7355211;19;20371;-57
2023/07/04 09:18:55;;;;;;;;;;;;;;;16.22;74.13;100197.13;7356674;19;20503;-57
2023/07/04 09:21:21;;;;;;;;;;;;;;;16.30;73.64;100208.97;7252341;19;2004338;-57
2023/07/04 09:23:47;;;;;;;;;;;;;;;16.40;73.84;100219.00;7355808;19;20626;-58
2023/07/04 09:26:17;;;;;;;;;;;;;;;16.49;73.82;100205.34;7355860;19;19922;-59
2023/07/04 09:28:44;;;;;;;;;;;;;;;16.58;73.48;100215.38;7355393;19;19918;-58
2023/07/04 09:31:19;;;;;;;;;;;;;;;16.65;73.22;100211.47;7355494;19;19938;-58
2023/07/04 09:33:47;;;;;;;;;;;;;;;16.74;73.29;100210.13;7352633;19;20396;-58
2023/07/04 09:36:13;;;;;;;;;;;;;;;16.88;73.52;100212.84;7355574;19;20664;-58
2023/07/04 09:38:54;;;;;;;;;;;;;;;17.05;73.43;100214.53;7354276;19;19922;-59
2023/07/04 09:41:25;;;;;;;;;;;;;;;17.28;73.76;100214.03;7355432;19;19931;-58
2023/07/04 09:43:51;;;;;;;;;;;;;;;17.50;73.46;100215.44;7353386;19;19934;-57
2023/07/04 09:46:22;;;;;;;;;;;;;;;17.74;73.85;100214.00;7355915;19;19943;-58
2023/07/04 09:48:48;;;;;;;;;;;;;;;18.06;74.30;100209.41;7354901;19;19927;-58
2023/07/04 09:51:29;;;;;;;;;;;;;;;18.26;73.61;100208.16;7355037;19;22463;-58
2023/07/04 09:54:08;;;;;;;;;;;;;;;18.51;73.27;100209.28;7353677;19;19922;-59
2023/07/04 09:56:33;;;;;;;;;;;;;;;18.78;73.95;100211.97;7355679;19;20302;-58
2023/07/04 09:59:18;;;;;;;;;;;;;;;19.02;73.60;100204.25;7354122;19;19926;-59
2023/07/04 10:01:51;;;;;;;;;;;;;;;19.28;73.18;100208.66;7351193;19;19919;-58
2023/07/04 10:04:30;;;;;;;;;;;;;;;19.55;73.14;100211.22;7355545;19;19918;-59
2023/07/04 10:06:56;;;;;;;;;;;;;;;19.80;72.91;100202.50;7355175;19;19922;-58
2023/07/04 10:09:21;;;;;;;;;;;;;;;20.04;72.54;100207.91;7355405;19;19919;-58
2023/07/04 10:11:48;;;;;;;;;;;;;;;20.24;72.46;100195.88;7354453;19;19951;-58
2023/07/04 10:14:14;;;;;;;;;;;;;;;20.42;71.60;100207.81;7355218;19;20440;-58
2023/07/04 10:16:48;;;;;;;;;;;;;;;20.58;71.51;100198.78;7356008;19;20703;-58
2023/07/04 10:19:16;;;;;;;;;;;;;;;20.79;71.82;100202.56;7345523;19;19922;-58
2023/07/04 10:21:42;;;;;;;;;;;;;;;21.08;72.98;100202.19;7354153;19;19923;-58
2023/07/04 10:24:08;;;;;;;;;;;;;;;21.41;72.47;100198.88;7354384;19;19922;-58
2023/07/04 10:26:34;;;;;;;;;;;;;;;21.74;72.67;100190.09;7355086;19;20718;-58
2023/07/04 10:29:00;;;;;;;;;;;;;;;22.05;72.27;100198.34;7351254;19;19919;-58
2023/07/04 10:31:25;;;;;;;;;;;;;;;22.29;70.82;100191.13;7354506;19;19926;-58
2023/07/04 10:33:53;;;;;;;;;;;;;;;22.50;70.46;100197.38;7355875;19;19919;-58
2023/07/04 10:36:31;;;;;;;;;;;;;;;22.37;69.69;100154.13;7355227;19;19919;-58
2023/07/04 10:38:59;;;;;;;;;;;;;;;22.85;70.08;100188.34;7354271;19;20690;-59
2023/07/04 10:41:29;;;;;;;;;;;;;;;23.02;69.68;100190.53;7352016;19;20395;-59
2023/07/04 10:44:01;;;;;;;;;;;;;;;23.22;69.59;100198.69;7354459;19;20397;-58
2023/07/04 10:46:28;;;;;;;;;;;;;;;23.39;69.51;100182.09;7360709;19;19919;-58
2023/07/04 10:49:04;;;;;;;;;;;;;;;23.58;69.54;100181.41;7360817;19;20385;-58
2023/07/04 10:51:33;;;;;;;;;;;;;;;23.77;69.71;100175.34;7361050;19;19915;-58
2023/07/04 10:53:58;;;;;;;;;;;;;;;23.99;69.53;100183.19;7361410;19;21096;-58
2023/07/04 10:56:26;;;;;;;;;;;;;;;24.18;69.36;100176.22;7361101;19;19970;-59
2023/07/04 10:58:55;;;;;;;;;;;;;;;24.36;68.42;100177.31;7359662;19;19922;-58
2023/07/04 11:01:24;;;;;;;;;;;;;;;24.47;68.27;100179.88;7361115;19;19947;-57
2023/07/04 11:03:57;;;;;;;;;;;;;;;24.60;67.99;100176.97;7360416;19;19925;-58
2023/07/04 11:06:40;;;;;;;;;;;;;;;24.76;67.77;100179.09;7360608;19;19943;-59
2023/07/04 11:09:07;;;;;;;;;;;;;;;24.91;67.02;100188.38;7360323;19;19951;-59
2023/07/04 11:11:32;;;;;;;;;;;;;;;25.04;67.08;100170.25;7359917;19;19959;-58
2023/07/04 11:14:01;;;;;;;;;;;;;;;25.21;67.37;100175.91;7360207;19;20411;-58
2023/07/04 11:16:29;;;;;;;;;;;;;;;25.40;68.02;100167.88;7357024;19;19915;-58
2023/07/04 11:19:19;;;;;;;;;;;;;;;25.66;68.44;100161.91;7360469;19;20280;-59
2023/07/04 11:22:00;;;;;;;;;;;;;;;26.00;68.76;100165.72;7358992;19;19926;-59
2023/07/04 11:24:32;;;;;;;;;;;;;;;26.36;68.41;100165.88;7359504;19;20947;-58
2023/07/04 11:27:11;;;;;;;;;;;;;;;26.70;67.65;100167.94;7360534;19;19931;-59
2023/07/04 11:29:52;;;;;;;;;;;;;;;27.03;66.32;100167.25;7358202;19;19943;-59
2023/07/04 11:32:17;;;;;;;;;;;;;;;27.33;65.82;100168.72;7360327;19;19919;-59
2023/07/04 11:34:50;;;;;;;;;;;;;;;27.64;62.91;100160.22;7359129;19;22042;-58
2023/07/04 11:37:18;;;;;;;;;;;;;;;27.92;62.85;100161.72;7360158;19;19927;-58
2023/07/04 11:39:46;;;;;;;;;;;;;;;28.22;61.50;100156.84;7358330;19;20390;-59
2023/07/04 11:42:17;;;;;;;;;;;;;;;28.40;61.23;100164.81;7359535;19;20324;-59
2023/07/04 11:44:48;;;;;;;;;;;;;;;28.52;61.06;100171.56;7358507;19;19926;-59
2023/07/04 11:47:15;;;;;;;;;;;;;;;28.63;61.48;100160.50;7359699;19;19936;-58
2023/07/04 11:49:52;;;;;;;;;;;;;;;28.84;61.33;100161.88;7360143;19;20471;-59
2023/07/04 11:52:25;;;;;;;;;;;;;;;29.10;60.51;100157.25;7358573;19;19923;-58
2023/07/04 11:54:54;;;;;;;;;;;;;;;29.36;59.96;100156.22;7357053;19;19978;-59
2023/07/04 11:57:20;;;;;;;;;;;;;;;29.60;59.87;100153.53;7354854;19;19934;-59
2023/07/04 11:59:46;;;;;;;;;;;;;;;29.80;59.42;100147.75;7359386;19;19938;-58
2023/07/04 12:02:13;;;;;;;;;;;;;;;29.90;59.04;100149.22;7359278;19;19950;-58
2023/07/04 12:04:39;;;;;;;;;;;;;;;29.96;57.95;100147.72;7359882;19;19933;-59
2023/07/04 12:07:07;;;;;;;;;;;;;;;29.90;57.35;100145.69;7357719;19;19923;-58
2023/07/04 12:09:52;;;;;;;;;;;;;;;29.77;56.71;100153.50;7359531;19;19925;-58
2023/07/04 12:12:25;;;;;;;;;;;;;;;29.54;56.15;100153.38;7358666;19;19994;-58
2023/07/04 12:14:57;;;;;;;;;;;;;;;29.31;56.05;100154.06;7356676;19;19937;-59
2023/07/04 12:17:24;;;;;;;;;;;;;;;29.12;56.29;100144.47;7359568;19;20479;-59
2023/07/04 12:19:53;;;;;;;;;;;;;;;28.93;55.85;100147.44;7356846;19;20701;-59
2023/07/04 12:22:19;;;;;;;;;;;;;;;28.74;55.87;100151.31;7360095;19;19919;-58
2023/07/04 12:24:46;;;;;;;;;;;;;;;28.57;54.95;100150.44;7357558;19;20437;-58
2023/07/04 12:27:11;;;;;;;;;;;;;;;28.36;54.60;100141.97;7357362;19;19926;-58
2023/07/04 12:29:46;;;;;;;;;;;;;;;28.17;53.91;100146.56;7359860;19;19948;-58
2023/07/04 12:32:17;;;;;;;;;;;;;;;28.00;54.24;100142.16;7356729;19;19949;-58
2023/07/04 12:34:42;;;;;;;;;;;;;;;27.93;54.19;100135.75;7357761;19;19929;-58
2023/07/04 12:37:14;;;;;;;;;;;;;;;27.95;54.37;100133.75;7358375;19;21304;-58